Time;durP1;ratioP1;P1;durP2;ratioP2;P2;SDS_P1;SDS_P2;PMS_P1;PMS_P2;Temp;Humidity;BMP_temperature;BMP_pressure;BME280_temperature;BME280_humidity;BME280_pressure;Samples;Min_cycle;Max_cycle;Signal;HPM_P1;HPM_P2
2021/11/17 02:28:07;;;;;;;26.75;13.50;;;;;;;;;;5094175;28;20031;-71
2021/11/17 02:30:36;;;;;;;22.80;13.18;;;;;;;;;;5094465;28;20475;-70
2021/11/17 02:33:08;;;;;;;24.70;14.80;;;;;;;;;;5094061;28;20028;-71
2021/11/17 02:35:41;;;;;;;22.23;13.32;;;;;;;;;;5094298;28;20024;-71
2021/11/17 02:38:13;;;;;;;20.15;12.63;;;;;;;;;;5093129;28;20040;-71
2021/11/17 02:40:46;;;;;;;18.20;11.40;;;;;;;;;;5093918;28;20031;-71
2021/11/17 02:43:24;;;;;;;16.38;11.02;;;;;;;;;;5094176;28;20139;-71
2021/11/17 02:46:00;;;;;;;22.98;14.40;;;;;;;;;;5094083;28;20020;-71
2021/11/17 02:48:40;;;;;;;25.88;15.23;;;;;;;;;;5093664;28;20021;-71
2021/11/17 02:51:22;;;;;;;23.13;14.52;;;;;;;;;;5094317;28;20504;-71
2021/11/17 02:54:07;;;;;;;23.88;13.65;;;;;;;;;;5094084;28;20380;-71
2021/11/17 02:56:43;;;;;;;21.67;12.50;;;;;;;;;;5093891;28;20075;-71
2021/11/17 02:59:15;;;;;;;29.83;15.00;;;;;;;;;;5093022;28;20454;-71
2021/11/17 03:01:56;;;;;;;29.63;16.90;;;;;;;;;;5092235;28;20028;-71
2021/11/17 03:04:36;;;;;;;26.02;15.35;;;;;;;;;;5093733;28;20032;-71
2021/11/17 03:07:02;;;;;;;20.60;12.82;;;;;;;;;;5093807;28;20091;-71
2021/11/17 03:09:40;;;;;;;20.83;12.30;;;;;;;;;;5093385;28;20066;-71
2021/11/17 03:12:13;;;;;;;21.95;12.13;;;;;;;;;;5093657;28;20062;-71
2021/11/17 03:14:39;;;;;;;24.97;12.97;;;;;;;;;;5093692;28;20020;-71
2021/11/17 03:17:09;;;;;;;22.80;13.18;;;;;;;;;;5093385;28;20261;-71
2021/11/17 03:19:42;;;;;;;21.20;12.60;;;;;;;;;;5093592;28;20032;-71
2021/11/17 03:22:26;;;;;;;22.23;12.43;;;;;;;;;;5094839;28;20026;-71
2021/11/17 03:24:58;;;;;;;29.92;14.68;;;;;;;;;;5094039;28;20028;-71
2021/11/17 03:27:35;;;;;;;30.45;16.05;;;;;;;;;;5093734;28;20468;-71
2021/11/17 03:30:11;;;;;;;30.67;18.00;;;;;;;;;;5091976;28;20020;-70
2021/11/17 03:32:59;;;;;;;25.10;15.82;;;;;;;;;;5092018;28;20028;-71
2021/11/17 03:35:31;;;;;;;25.83;14.98;;;;;;;;;;5093352;28;20065;-71
2021/11/17 03:38:17;;;;;;;23.77;13.93;;;;;;;;;;5092854;28;20097;-71
2021/11/17 03:40:56;;;;;;;22.75;13.68;;;;;;;;;;5093378;28;20024;-71
2021/11/17 03:43:40;;;;;;;20.98;12.85;;;;;;;;;;5092934;28;20020;-71
2021/11/17 03:46:19;;;;;;;22.40;13.48;;;;;;;;;;5093226;28;20052;-71
2021/11/17 03:48:45;;;;;;;20.40;12.73;;;;;;;;;;5093224;28;20099;-71
2021/11/17 03:51:12;;;;;;;23.83;13.95;;;;;;;;;;5093020;28;20078;-71
2021/11/17 03:54:13;;;;;;;25.60;14.77;;;;;;;;;;5093172;28;20084;-71
2021/11/17 03:56:39;;;;;;;27.00;16.25;;;;;;;;;;5070973;28;20366;-71
2021/11/17 03:59:17;;;;;;;27.58;16.70;;;;;;;;;;5088199;28;20454;-71
2021/11/17 04:01:52;;;;;;;24.45;15.52;;;;;;;;;;5091917;28;20028;-71
2021/11/17 04:04:25;;;;;;;27.80;15.63;;;;;;;;;;5091999;28;20016;-71
2021/11/17 04:07:10;;;;;;;20.73;13.55;;;;;;;;;;5092869;28;20044;-71
2021/11/17 04:09:42;;;;;;;35.00;18.02;;;;;;;;;;5092994;28;20093;-72
2021/11/17 04:12:17;;;;;;;33.33;18.58;;;;;;;;;;5092647;28;20097;-71
2021/11/17 04:15:20;;;;;;;28.73;16.88;;;;;;;;;;5093190;28;20028;-71
2021/11/17 04:17:47;;;;;;;27.75;16.80;;;;;;;;;;5070564;28;20025;-71
2021/11/17 04:20:32;;;;;;;24.65;14.27;;;;;;;;;;5088418;28;20044;-71
2021/11/17 04:23:07;;;;;;;27.67;15.88;;;;;;;;;;5074272;28;20025;-71
2021/11/17 04:25:33;;;;;;;28.80;16.42;;;;;;;;;;5092447;28;20070;-71
2021/11/17 04:28:12;;;;;;;26.80;16.00;;;;;;;;;;5091607;28;20491;-71
2021/11/17 04:30:41;;;;;;;23.90;14.52;;;;;;;;;;5093091;28;20028;-71
2021/11/17 04:33:16;;;;;;;27.90;15.40;;;;;;;;;;5092494;28;20372;-71
2021/11/17 04:35:49;;;;;;;31.95;18.38;;;;;;;;;;5092738;28;20475;-71
2021/11/17 04:38:37;;;;;;;29.45;17.08;;;;;;;;;;5092582;28;20044;-71
2021/11/17 04:41:03;;;;;;;24.65;14.75;;;;;;;;;;5091441;28;20020;-71
2021/11/17 04:44:05;;;;;;;25.05;15.05;;;;;;;;;;5092758;28;20024;-71
2021/11/17 04:46:54;;;;;;;27.67;14.90;;;;;;;;;;5073299;28;20258;-72
2021/11/17 04:49:20;;;;;;;27.13;14.35;;;;;;;;;;5089875;28;20039;-71
2021/11/17 04:51:57;;;;;;;22.77;13.27;;;;;;;;;;5096311;28;20024;-70
2021/11/17 04:54:23;;;;;;;21.40;12.88;;;;;;;;;;5095959;28;20024;-71
2021/11/17 04:56:52;;;;;;;26.80;14.00;;;;;;;;;;5096233;28;20048;-70
2021/11/17 04:59:29;;;;;;;28.67;16.85;;;;;;;;;;5096406;28;20036;-71
2021/11/17 05:02:01;;;;;;;26.80;17.00;;;;;;;;;;5094222;28;20466;-70
2021/11/17 05:04:44;;;;;;;29.27;16.88;;;;;;;;;;5096267;28;20066;-71
2021/11/17 05:07:19;;;;;;;24.20;14.05;;;;;;;;;;5096200;28;20481;-71
2021/11/17 05:09:54;;;;;;;24.92;14.43;;;;;;;;;;5095657;28;20027;-71
2021/11/17 05:12:26;;;;;;;25.75;14.45;;;;;;;;;;5095766;28;20032;-70
2021/11/17 05:15:17;;;;;;;24.92;14.00;;;;;;;;;;5096285;28;20038;-71
2021/11/17 05:18:02;;;;;;;30.13;16.48;;;;;;;;;;5095668;28;20085;-71
2021/11/17 05:20:34;;;;;;;26.13;15.77;;;;;;;;;;5095803;28;20529;-71
2021/11/17 05:23:00;;;;;;;34.50;21.70;;;;;;;;;;5095403;28;20024;-71
2021/11/17 05:25:36;;;;;;;34.25;21.25;;;;;;;;;;5096005;28;20024;-70
2021/11/17 05:28:08;;;;;;;27.33;18.35;;;;;;;;;;5094708;28;20384;-71
2021/11/17 05:30:34;;;;;;;28.90;15.63;;;;;;;;;;5095130;28;20024;-70
2021/11/17 05:33:00;;;;;;;27.83;18.27;;;;;;;;;;5094415;28;20027;-71
2021/11/17 05:35:50;;;;;;;30.77;18.15;;;;;;;;;;5095652;28;20173;-71
2021/11/17 05:38:34;;;;;;;44.30;27.15;;;;;;;;;;5075449;28;20072;-70
2021/11/17 05:41:07;;;;;;;54.58;34.00;;;;;;;;;;5095393;28;20024;-71
2021/11/17 05:43:56;;;;;;;59.08;34.17;;;;;;;;;;5095044;28;20124;-71
2021/11/17 05:46:34;;;;;;;50.45;31.98;;;;;;;;;;5085349;28;20063;-70
2021/11/17 05:49:17;;;;;;;52.17;29.30;;;;;;;;;;5094122;28;20027;-69
2021/11/17 05:52:02;;;;;;;38.38;24.33;;;;;;;;;;5093697;28;20016;-70
2021/11/17 05:54:53;;;;;;;37.17;22.58;;;;;;;;;;5096159;28;20016;-71
2021/11/17 05:57:19;;;;;;;34.15;22.88;;;;;;;;;;5094843;28;20077;-71
2021/11/17 05:59:52;;;;;;;36.35;23.20;;;;;;;;;;5095002;28;20024;-70
2021/11/17 06:02:24;;;;;;;37.00;21.92;;;;;;;;;;5097595;28;20027;-70
2021/11/17 06:04:50;;;;;;;41.85;21.45;;;;;;;;;;5094518;28;20047;-69
2021/11/17 06:07:16;;;;;;;46.83;32.15;;;;;;;;;;5094810;28;20020;-71
2021/11/17 06:09:42;;;;;;;36.80;23.10;;;;;;;;;;5094828;28;20098;-71
2021/11/17 06:12:10;;;;;;;39.67;24.42;;;;;;;;;;5093031;28;20396;-71
2021/11/17 06:14:38;;;;;;;35.33;22.63;;;;;;;;;;5094622;28;20529;-71
2021/11/17 06:17:07;;;;;;;45.78;29.88;;;;;;;;;;5094586;28;20024;-70
2021/11/17 06:19:35;;;;;;;48.10;26.63;;;;;;;;;;5093767;28;20122;-70
2021/11/17 06:22:01;;;;;;;47.35;27.20;;;;;;;;;;5089672;28;20024;-72
2021/11/17 06:24:28;;;;;;;44.55;25.67;;;;;;;;;;5090879;28;20492;-75
2021/11/17 06:26:58;;;;;;;39.78;24.50;;;;;;;;;;5092481;28;20059;-75
2021/11/17 06:29:26;;;;;;;41.45;23.95;;;;;;;;;;5094112;28;20104;-74
2021/11/17 06:31:52;;;;;;;42.85;28.60;;;;;;;;;;5092795;28;20484;-73
2021/11/17 06:34:26;;;;;;;63.78;39.33;;;;;;;;;;5093262;28;20085;-73
2021/11/17 06:36:52;;;;;;;52.42;34.70;;;;;;;;;;5093596;28;20054;-74
2021/11/17 06:39:18;;;;;;;46.47;28.40;;;;;;;;;;5082738;28;20044;-73
2021/11/17 06:41:44;;;;;;;40.33;23.75;;;;;;;;;;5090550;28;20028;-74
2021/11/17 06:44:11;;;;;;;39.70;25.13;;;;;;;;;;5091759;28;20468;-75
2021/11/17 06:46:37;;;;;;;49.85;31.80;;;;;;;;;;5091055;28;20476;-75
2021/11/17 06:49:04;;;;;;;47.13;30.05;;;;;;;;;;5092170;28;20123;-74
2021/11/17 06:51:30;;;;;;;42.05;27.38;;;;;;;;;;5091822;28;20468;-74
2021/11/17 06:53:57;;;;;;;38.00;25.55;;;;;;;;;;5091049;28;20381;-74
2021/11/17 06:56:23;;;;;;;48.55;28.17;;;;;;;;;;5084407;28;20497;-73
2021/11/17 06:58:50;;;;;;;60.35;36.17;;;;;;;;;;5075604;28;20165;-73
2021/11/17 07:01:16;;;;;;;54.08;31.65;;;;;;;;;;5091814;28;20388;-73
2021/11/17 07:03:42;;;;;;;40.50;26.52;;;;;;;;;;5093452;28;20183;-73
2021/11/17 07:06:09;;;;;;;39.30;23.27;;;;;;;;;;5087390;28;20035;-74
2021/11/17 07:08:37;;;;;;;57.95;32.28;;;;;;;;;;5086701;28;20039;-73
2021/11/17 07:11:03;;;;;;;60.53;34.50;;;;;;;;;;5090839;28;20107;-75
2021/11/17 07:13:29;;;;;;;68.32;38.95;;;;;;;;;;5092948;28;20407;-74
2021/11/17 07:15:56;;;;;;;91.10;46.92;;;;;;;;;;5089045;28;20045;-72
2021/11/17 07:18:30;;;;;;;89.85;44.70;;;;;;;;;;5092424;28;20064;-74
2021/11/17 07:20:56;;;;;;;69.10;40.70;;;;;;;;;;5091750;28;20023;-73
2021/11/17 07:23:22;;;;;;;61.35;35.28;;;;;;;;;;5092701;28;20028;-75
2021/11/17 07:25:48;;;;;;;74.10;39.88;;;;;;;;;;5090743;28;20024;-74
2021/11/17 07:28:15;;;;;;;74.13;37.58;;;;;;;;;;5091900;28;20024;-74
2021/11/17 07:30:42;;;;;;;59.90;31.90;;;;;;;;;;5091853;28;20051;-74
2021/11/17 07:33:09;;;;;;;55.20;32.45;;;;;;;;;;5092712;28;20025;-75
2021/11/17 07:35:37;;;;;;;55.72;34.90;;;;;;;;;;5092372;28;20032;-76
2021/11/17 07:38:05;;;;;;;57.70;35.35;;;;;;;;;;5092219;28;20040;-74
2021/11/17 07:40:32;;;;;;;54.13;34.22;;;;;;;;;;5092950;28;20028;-74
2021/11/17 07:42:58;;;;;;;56.55;32.72;;;;;;;;;;5092139;28;20461;-77
2021/11/17 07:45:25;;;;;;;49.67;32.97;;;;;;;;;;5092676;28;20654;-75
2021/11/17 07:47:52;;;;;;;42.47;27.50;;;;;;;;;;5092581;28;20353;-73
2021/11/17 07:50:19;;;;;;;40.78;28.15;;;;;;;;;;5092774;28;20031;-76
2021/11/17 07:52:45;;;;;;;45.00;28.30;;;;;;;;;;5091551;28;20526;-75
2021/11/17 07:55:12;;;;;;;40.50;27.85;;;;;;;;;;5091471;28;20027;-77
2021/11/17 07:57:41;;;;;;;32.60;21.08;;;;;;;;;;5090704;28;20060;-73
2021/11/17 08:00:19;;;;;;;33.60;21.58;;;;;;;;;;5087508;28;20161;-75
2021/11/17 08:02:46;;;;;;;50.28;31.85;;;;;;;;;;5092876;28;20074;-74
2021/11/17 08:05:12;;;;;;;35.20;22.00;;;;;;;;;;5089844;28;20491;-74
2021/11/17 08:07:40;;;;;;;33.50;21.13;;;;;;;;;;5092498;28;20122;-73
2021/11/17 08:10:12;;;;;;;40.65;23.95;;;;;;;;;;5092710;28;20024;-73
2021/11/17 08:12:38;;;;;;;37.65;24.77;;;;;;;;;;5092347;28;20027;-73
2021/11/17 08:15:05;;;;;;;38.00;24.67;;;;;;;;;;5092128;28;20020;-73
2021/11/17 08:17:31;;;;;;;34.78;23.08;;;;;;;;;;5091710;28;20063;-73
2021/11/17 08:19:57;;;;;;;48.80;27.45;;;;;;;;;;5093018;28;20384;-73
2021/11/17 08:22:23;;;;;;;46.63;28.90;;;;;;;;;;5096348;28;20029;-75
2021/11/17 08:24:49;;;;;;;47.60;31.83;;;;;;;;;;5094734;28;20433;-74
2021/11/17 08:27:21;;;;;;;52.47;34.42;;;;;;;;;;5094731;28;20526;-74
2021/11/17 08:29:48;;;;;;;48.53;29.33;;;;;;;;;;5095344;28;20020;-72
2021/11/17 08:32:15;;;;;;;45.35;28.05;;;;;;;;;;5094999;28;20051;-73
2021/11/17 08:34:41;;;;;;;38.63;25.05;;;;;;;;;;5080250;28;20104;-75
2021/11/17 08:37:08;;;;;;;47.75;29.45;;;;;;;;;;5074919;28;20009;-73
2021/11/17 08:39:35;;;;;;;43.83;28.77;;;;;;;;;;5075470;28;20094;-74
2021/11/17 08:42:01;;;;;;;45.75;29.70;;;;;;;;;;5075851;28;20020;-74
2021/11/17 08:44:28;;;;;;;42.35;27.33;;;;;;;;;;5073943;28;20094;-74
2021/11/17 08:46:54;;;;;;;46.15;29.35;;;;;;;;;;5074850;28;20050;-74
2021/11/17 08:49:20;;;;;;;47.72;30.45;;;;;;;;;;5075243;28;20422;-74
2021/11/17 08:51:47;;;;;;;50.90;31.58;;;;;;;;;;5075306;28;20032;-73
2021/11/17 08:54:14;;;;;;;46.80;30.55;;;;;;;;;;5074677;28;20393;-75
2021/11/17 08:56:40;;;;;;;46.50;30.63;;;;;;;;;;5074045;28;20024;-72
2021/11/17 08:59:06;;;;;;;48.20;32.40;;;;;;;;;;5074522;28;20044;-73
2021/11/17 09:01:33;;;;;;;51.15;31.38;;;;;;;;;;5073602;28;20032;-74
2021/11/17 09:04:00;;;;;;;50.45;29.30;;;;;;;;;;5084207;28;20033;-74
2021/11/17 09:06:27;;;;;;;51.78;32.08;;;;;;;;;;5073257;28;20623;-72
2021/11/17 09:08:53;;;;;;;42.85;27.38;;;;;;;;;;5074339;28;20033;-73
2021/11/17 09:13:00;;;;;;;55.20;35.00;;;;;;;;;;5113170;27;20422;-74
2021/11/17 09:16:33;;;;;;;73.22;38.65;;;;;;;;;;5110547;27;20462;-74
2021/11/17 09:19:01;;;;;;;50.97;29.02;;;;;;;;;;5111702;28;20028;-74
2021/11/17 09:21:28;;;;;;;56.28;28.73;;;;;;;;;;5108404;28;20028;-74
2021/11/17 09:25:25;;;;;;;47.63;27.15;;;;;;;;;;5121837;27;20399;-73
2021/11/17 09:28:37;;;;;;;34.90;20.80;;;;;;;;;;5105056;27;20393;-73
2021/11/17 09:31:34;;;;;;;39.95;22.00;;;;;;;;;;5106300;27;20447;-72
2021/11/17 09:34:00;;;;;;;25.70;16.13;;;;;;;;;;5103471;28;20039;-72
2021/11/17 09:36:28;;;;;;;24.70;13.48;;;;;;;;;;5108250;28;20031;-72
2021/11/17 09:38:55;;;;;;;24.63;16.13;;;;;;;;;;5109216;28;20532;-72
2021/11/17 09:42:33;;;;;;;26.77;15.05;;;;;;;;;;5121964;27;20386;-73
2021/11/17 09:45:10;;;;;;;42.63;24.67;;;;;;;;;;4938105;27;4820320;-73
2021/11/17 09:47:37;;;;;;;20.80;14.45;;;;;;;;;;5087613;28;20032;-74
2021/11/17 09:50:16;;;;;;;55.90;28.52;;;;;;;;;;5083626;28;20021;-74
2021/11/17 09:52:47;;;;;;;65.07;30.70;;;;;;;;;;5079357;28;20073;-73
2021/11/17 09:55:42;;;;;;;73.35;29.42;;;;;;;;;;5107645;27;20457;-74
2021/11/17 09:58:21;;;;;;;32.42;14.77;;;;;;;;;;5107498;28;20862;-73
2021/11/17 10:03:02;;;;;;;39.03;20.65;;;;;;;;;;5107685;27;20777;-72
2021/11/17 10:09:32;;;;;;;21.65;12.80;;;;;;;;;;5080603;28;20063;-74
2021/11/17 10:12:15;;;;;;;31.23;16.58;;;;;;;;;;5083623;28;20028;-73
2021/11/17 10:14:46;;;;;;;24.40;12.13;;;;;;;;;;5107542;27;20121;-73
2021/11/17 10:17:31;;;;;;;21.92;11.60;;;;;;;;;;5101809;28;20089;-73
2021/11/17 10:24:20;;;;;;;51.33;27.48;;;;;;;;;;5110414;27;20911;-72
2021/11/17 10:29:01;;;;;;;23.70;10.82;;;;;;;;;;5106331;28;20116;-71
2021/11/17 10:34:35;;;;;;;26.60;14.65;;;;;;;;;;5116416;27;20112;-73
2021/11/17 10:37:04;;;;;;;26.48;13.57;;;;;;;;;;5067028;28;20056;-73
2021/11/17 10:39:31;;;;;;;18.50;10.60;;;;;;;;;;5069008;28;20017;-74
2021/11/17 10:41:57;;;;;;;18.30;10.95;;;;;;;;;;5068034;28;20107;-72
2021/11/17 10:44:46;;;;;;;21.95;12.93;;;;;;;;;;5067287;28;20489;-72
2021/11/17 10:50:25;;;;;;;20.63;12.10;;;;;;;;;;5106043;27;20393;-73
2021/11/17 10:52:55;;;;;;;22.90;10.88;;;;;;;;;;5098320;28;20422;-71
2021/11/17 10:56:27;;;;;;;23.38;13.25;;;;;;;;;;5100632;27;20445;-72
2021/11/17 10:58:55;;;;;;;18.63;11.93;;;;;;;;;;5099277;28;20432;-72
2021/11/17 11:01:35;;;;;;;19.00;10.95;;;;;;;;;;5105932;28;20039;-73
2021/11/17 11:04:05;;;;;;;17.90;8.75;;;;;;;;;;5088478;28;20078;-73
2021/11/17 11:06:40;;;;;;;21.58;13.02;;;;;;;;;;5089839;28;20376;-72
2021/11/17 11:09:09;;;;;;;26.42;13.88;;;;;;;;;;5089352;28;20048;-72
2021/11/17 11:12:32;;;;;;;20.63;11.27;;;;;;;;;;5110694;27;20400;-72
2021/11/17 11:15:59;;;;;;;22.35;13.10;;;;;;;;;;5110104;27;20446;-71
2021/11/17 11:19:27;;;;;;;19.88;12.40;;;;;;;;;;5089218;27;20405;-73
2021/11/17 11:21:54;;;;;;;17.08;10.13;;;;;;;;;;5089583;28;20059;-73
2021/11/17 11:28:20;;;;;;;30.10;15.63;;;;;;;;;;5109232;27;20437;-73
2021/11/17 11:31:34;;;;;;;29.90;17.83;;;;;;;;;;5110627;27;20397;-73
2021/11/17 11:34:01;;;;;;;20.17;13.13;;;;;;;;;;5107517;28;20110;-73
2021/11/17 11:38:31;;;;;;;25.65;15.30;;;;;;;;;;5087986;27;20428;-73
2021/11/17 11:42:58;;;;;;;16.00;10.88;;;;;;;;;;5107643;27;20462;-72
2021/11/17 11:45:27;;;;;;;40.45;22.05;;;;;;;;;;5108672;28;20081;-72
2021/11/17 11:49:50;;;;;;;18.50;11.50;;;;;;;;;;5109812;27;20393;-72
2021/11/17 11:52:25;;;;;;;21.77;10.98;;;;;;;;;;5109135;28;20024;-73
2021/11/17 11:54:53;;;;;;;25.23;15.40;;;;;;;;;;5110826;28;20028;-72
2021/11/17 11:57:43;;;;;;;25.55;14.10;;;;;;;;;;5110823;27;20908;-73
2021/11/17 12:03:24;;;;;;;23.17;14.55;;;;;;;;;;5108996;27;20377;-73
2021/11/17 12:06:01;;;;;;;17.90;11.77;;;;;;;;;;5108640;28;20074;-73
2021/11/17 12:08:33;;;;;;;18.83;11.95;;;;;;;;;;5108401;28;20472;-74
2021/11/17 12:12:49;;;;;;;30.67;14.18;;;;;;;;;;5109996;27;20385;-74
2021/11/17 12:16:31;;;;;;;22.95;12.98;;;;;;;;;;5069499;28;20733;-74
2021/11/17 12:18:57;;;;;;;19.27;12.23;;;;;;;;;;5068186;28;20593;-74
2021/11/17 12:21:44;;;;;;;23.38;12.00;;;;;;;;;;5068497;28;20413;-73
2021/11/17 12:24:13;;;;;;;15.95;10.00;;;;;;;;;;5066374;28;20036;-73
2021/11/17 12:28:31;;;;;;;25.15;15.57;;;;;;;;;;5064963;28;20779;-73
2021/11/17 12:30:57;;;;;;;19.80;12.00;;;;;;;;;;5068433;28;20117;-74
2021/11/17 12:33:34;;;;;;;20.50;12.35;;;;;;;;;;5055771;28;20608;-74
2021/11/17 12:36:04;;;;;;;15.38;9.13;;;;;;;;;;5047745;28;20478;-74
2021/11/17 12:38:34;;;;;;;17.35;9.38;;;;;;;;;;5049247;28;20021;-74
2021/11/17 12:41:06;;;;;;;16.00;10.70;;;;;;;;;;5050100;28;20373;-73
2021/11/17 12:43:33;;;;;;;23.88;10.23;;;;;;;;;;5050243;28;20040;-73
2021/11/17 12:46:11;;;;;;;15.98;9.15;;;;;;;;;;5046438;28;21028;-73
2021/11/17 12:50:10;;;;;;;26.35;14.07;;;;;;;;;;5109657;27;20462;-74
2021/11/17 12:52:45;;;;;;;16.95;10.73;;;;;;;;;;5110517;28;20430;-74
2021/11/17 12:55:20;;;;;;;19.67;11.77;;;;;;;;;;5107762;28;20043;-74
2021/11/17 12:57:52;;;;;;;17.88;10.38;;;;;;;;;;5110493;28;20020;-74
2021/11/17 13:01:15;;;;;;;28.98;18.27;;;;;;;;;;5108428;27;20392;-74
2021/11/17 13:03:48;;;;;;;23.35;15.48;;;;;;;;;;5109240;28;20119;-74
2021/11/17 13:07:05;;;;;;;24.90;15.95;;;;;;;;;;5110257;27;20396;-72
2021/11/17 13:09:34;;;;;;;16.77;9.55;;;;;;;;;;5111111;28;20500;-73
2021/11/17 13:12:13;;;;;;;16.05;9.95;;;;;;;;;;5109275;28;20016;-72
2021/11/17 13:16:47;;;;;;;15.98;9.27;;;;;;;;;;5172930;27;20313;-74
2021/11/17 13:19:21;;;;;;;21.77;13.20;;;;;;;;;;5133453;27;20036;-73
2021/11/17 13:23:57;;;;;;;19.27;11.43;;;;;;;;;;5172227;27;20318;-74
2021/11/17 13:26:33;;;;;;;26.23;16.25;;;;;;;;;;5151787;27;20058;-73
2021/11/17 13:29:21;;;;;;;27.48;17.23;;;;;;;;;;5151501;27;20038;-72
2021/11/17 13:36:38;;;;;;;18.75;12.07;;;;;;;;;;5108410;27;20912;-72
2021/11/17 13:39:05;;;;;;;19.05;10.80;;;;;;;;;;5107397;28;20060;-73
2021/11/17 13:41:35;;;;;;;12.45;7.75;;;;;;;;;;5110383;28;20100;-73
2021/11/17 13:44:01;;;;;;;13.75;8.35;;;;;;;;;;5110692;28;20027;-73
2021/11/17 13:46:28;;;;;;;17.30;9.70;;;;;;;;;;5110461;28;20502;-73
2021/11/17 13:49:13;;;;;;;29.08;19.92;;;;;;;;;;5106603;27;20441;-72
2021/11/17 13:52:20;;;;;;;20.48;13.05;;;;;;;;;;5088396;28;20423;-73
2021/11/17 13:55:31;;;;;;;16.10;11.27;;;;;;;;;;5109835;27;20404;-73
2021/11/17 13:57:58;;;;;;;15.75;9.88;;;;;;;;;;5110397;28;20031;-73
2021/11/17 14:00:33;;;;;;;15.65;9.95;;;;;;;;;;5108690;27;20458;-73
2021/11/17 14:02:59;;;;;;;17.00;10.05;;;;;;;;;;5109186;28;20486;-73
2021/11/17 14:08:46;;;;;;;17.48;11.13;;;;;;;;;;5131551;27;20116;-72
2021/11/17 14:11:13;;;;;;;19.65;10.45;;;;;;;;;;5110019;28;20036;-73
2021/11/17 14:16:38;;;;;;;23.17;13.93;;;;;;;;;;5171165;27;20485;-72
2021/11/17 14:19:04;;;;;;;39.80;26.38;;;;;;;;;;5148767;27;20030;-72
2021/11/17 14:21:31;;;;;;;20.90;13.65;;;;;;;;;;5150883;27;20028;-72
2021/11/17 14:23:57;;;;;;;23.90;13.18;;;;;;;;;;5148154;27;20058;-72
2021/11/17 14:29:21;;;;;;;27.00;17.95;;;;;;;;;;5121942;27;20487;-71
2021/11/17 14:33:50;;;;;;;27.40;18.83;;;;;;;;;;5111336;27;20942;-71
2021/11/17 14:36:17;;;;;;;41.15;24.40;;;;;;;;;;5110971;28;20031;-71
2021/11/17 14:40:47;;;;;;;27.98;18.75;;;;;;;;;;5110948;27;20749;-72
2021/11/17 14:43:13;;;;;;;22.77;15.15;;;;;;;;;;5109355;28;20114;-73
2021/11/17 14:49:19;;;;;;;41.53;25.15;;;;;;;;;;5131182;27;20112;-72
2021/11/17 14:51:46;;;;;;;44.17;23.85;;;;;;;;;;5110115;28;20107;-72
2021/11/17 14:55:30;;;;;;;43.78;24.00;;;;;;;;;;5110818;27;20753;-72
2021/11/17 14:57:57;;;;;;;34.53;22.45;;;;;;;;;;5110524;28;20529;-72
2021/11/17 15:00:25;;;;;;;54.92;39.42;;;;;;;;;;5110024;28;20015;-72
2021/11/17 15:02:54;;;;;;;62.13;36.13;;;;;;;;;;5110634;28;20062;-71
2021/11/17 15:05:21;;;;;;;73.28;41.67;;;;;;;;;;5110695;28;20453;-71
2021/11/17 15:07:47;;;;;;;87.70;52.75;;;;;;;;;;5110292;28;20032;-71
2021/11/17 15:10:14;;;;;;;80.25;50.25;;;;;;;;;;5110587;28;20091;-70
2021/11/17 15:12:41;;;;;;;101.95;55.45;;;;;;;;;;5110459;28;20573;-71
2021/11/17 15:16:26;;;;;;;62.10;38.03;;;;;;;;;;5111307;27;20392;-72
2021/11/17 15:19:24;;;;;;;64.45;40.05;;;;;;;;;;5111205;27;20450;-72
2021/11/17 15:21:51;;;;;;;58.58;41.40;;;;;;;;;;5110796;28;20434;-71
2021/11/17 15:26:25;;;;;;;47.42;29.70;;;;;;;;;;5111343;27;20397;-72
2021/11/17 15:28:53;;;;;;;54.95;30.05;;;;;;;;;;5110624;28;20028;-70
2021/11/17 15:32:55;;;;;;;50.53;30.67;;;;;;;;;;5111323;27;20450;-71
2021/11/17 15:36:06;;;;;;;37.53;24.38;;;;;;;;;;5110660;27;20911;-71
2021/11/17 15:38:33;;;;;;;35.72;22.45;;;;;;;;;;5110913;28;20034;-72
2021/11/17 15:41:00;;;;;;;30.45;20.90;;;;;;;;;;5110313;28;20051;-71
2021/11/17 15:43:28;;;;;;;31.42;20.92;;;;;;;;;;5110867;28;20016;-71
2021/11/17 15:45:55;;;;;;;31.20;23.05;;;;;;;;;;5110925;28;20038;-70
2021/11/17 15:48:35;;;;;;;43.22;25.55;;;;;;;;;;5110640;27;20388;-72
2021/11/17 15:51:09;;;;;;;46.90;30.55;;;;;;;;;;5111491;28;20028;-71
2021/11/17 15:55:12;;;;;;;59.88;36.58;;;;;;;;;;5110515;27;20442;-72
2021/11/17 15:57:38;;;;;;;65.25;40.25;;;;;;;;;;5109512;28;20563;-72
2021/11/17 16:00:29;;;;;;;63.70;40.10;;;;;;;;;;5111004;27;20401;-71
2021/11/17 16:02:55;;;;;;;53.80;36.42;;;;;;;;;;5109085;28;20032;-71
2021/11/17 16:05:23;;;;;;;77.63;46.53;;;;;;;;;;5110660;28;20028;-71
2021/11/17 16:07:49;;;;;;;98.10;59.38;;;;;;;;;;5110677;28;20028;-71
2021/11/17 16:10:16;;;;;;;153.45;88.93;;;;;;;;;;5110755;28;20088;-71
2021/11/17 16:13:32;;;;;;;51.30;31.63;;;;;;;;;;5110793;27;20393;-70
2021/11/17 16:15:59;;;;;;;46.13;28.95;;;;;;;;;;5110766;28;20038;-70
2021/11/17 16:20:45;;;;;;;33.72;20.55;;;;;;;;;;5111486;27;20545;-71
2021/11/17 16:26:06;;;;;;;29.50;18.13;;;;;;;;;;5091176;28;20085;-71
2021/11/17 16:28:34;;;;;;;27.30;18.02;;;;;;;;;;5111183;28;20050;-71
2021/11/17 16:31:00;;;;;;;29.55;17.88;;;;;;;;;;5110049;28;20488;-71
2021/11/17 16:33:27;;;;;;;40.55;23.88;;;;;;;;;;5109346;28;20423;-71
2021/11/17 16:35:53;;;;;;;47.78;28.88;;;;;;;;;;5110516;28;20034;-71
2021/11/17 16:38:22;;;;;;;31.45;19.00;;;;;;;;;;5110384;28;20091;-70
2021/11/17 16:40:49;;;;;;;35.08;21.23;;;;;;;;;;5109379;28;20365;-70
2021/11/17 16:43:15;;;;;;;27.20;16.10;;;;;;;;;;5110608;28;20413;-70
2021/11/17 16:45:42;;;;;;;24.38;15.23;;;;;;;;;;5109979;28;20028;-71
2021/11/17 16:48:09;;;;;;;25.75;17.13;;;;;;;;;;5110574;28;20020;-70
2021/11/17 16:50:36;;;;;;;24.05;14.45;;;;;;;;;;5110540;28;20103;-70
2021/11/17 16:53:02;;;;;;;26.05;15.15;;;;;;;;;;5108869;28;20024;-70
2021/11/17 16:55:30;;;;;;;23.20;15.77;;;;;;;;;;5110620;28;20028;-70
2021/11/17 16:57:58;;;;;;;30.17;19.05;;;;;;;;;;5110353;28;20409;-70
2021/11/17 17:00:35;;;;;;;30.17;17.00;;;;;;;;;;5109917;28;20032;-70
2021/11/17 17:03:02;;;;;;;33.58;18.85;;;;;;;;;;5110377;28;20069;-70
2021/11/17 17:05:28;;;;;;;22.60;14.45;;;;;;;;;;5110100;28;20055;-70
2021/11/17 17:07:54;;;;;;;25.45;16.67;;;;;;;;;;5110388;28;20357;-70
2021/11/17 17:10:23;;;;;;;40.38;23.27;;;;;;;;;;5108990;28;20028;-70
2021/11/17 17:12:49;;;;;;;37.45;25.95;;;;;;;;;;5109681;28;20033;-70
2021/11/17 17:15:17;;;;;;;30.60;21.45;;;;;;;;;;5110047;28;20024;-71
2021/11/17 17:17:44;;;;;;;31.73;19.65;;;;;;;;;;5110072;28;20032;-70
2021/11/17 17:20:12;;;;;;;63.80;41.75;;;;;;;;;;5109439;28;20411;-70
2021/11/17 17:22:39;;;;;;;91.63;59.70;;;;;;;;;;5109784;28;20468;-70
2021/11/17 17:25:07;;;;;;;111.85;68.25;;;;;;;;;;5109842;28;20486;-70
2021/11/17 17:27:34;;;;;;;106.47;66.28;;;;;;;;;;5108114;28;20395;-70
2021/11/17 17:30:00;;;;;;;123.95;74.63;;;;;;;;;;5106911;28;20055;-70
2021/11/17 17:32:27;;;;;;;110.70;65.32;;;;;;;;;;5096173;28;20365;-70
2021/11/17 17:34:53;;;;;;;89.85;60.35;;;;;;;;;;5095876;28;20024;-70
2021/11/17 17:37:20;;;;;;;77.85;52.13;;;;;;;;;;5094711;28;20490;-70
2021/11/17 17:39:47;;;;;;;75.45;49.65;;;;;;;;;;5095821;28;20040;-70
2021/11/17 17:42:16;;;;;;;81.32;51.55;;;;;;;;;;5095490;28;20028;-70
2021/11/17 17:44:42;;;;;;;75.03;48.70;;;;;;;;;;5096065;28;20485;-71
2021/11/17 17:47:08;;;;;;;73.25;48.88;;;;;;;;;;5095843;28;20026;-71
2021/11/17 17:49:35;;;;;;;72.75;48.45;;;;;;;;;;5095601;28;20383;-70
2021/11/17 17:52:01;;;;;;;64.18;43.05;;;;;;;;;;5095733;28;20024;-70
2021/11/17 17:54:27;;;;;;;61.53;40.70;;;;;;;;;;5095770;28;20074;-70
2021/11/17 17:56:54;;;;;;;75.22;45.33;;;;;;;;;;5094031;28;20444;-69
2021/11/17 17:59:20;;;;;;;64.63;43.83;;;;;;;;;;5095559;28;20099;-70
2021/11/17 18:01:48;;;;;;;78.00;51.20;;;;;;;;;;5095112;28;20042;-70
2021/11/17 18:04:14;;;;;;;111.13;69.53;;;;;;;;;;5095567;28;20024;-70
2021/11/17 18:06:41;;;;;;;136.68;86.70;;;;;;;;;;5095415;28;20490;-70
2021/11/17 18:09:08;;;;;;;179.35;108.95;;;;;;;;;;5095073;28;20048;-70
2021/11/17 18:11:34;;;;;;;187.95;113.30;;;;;;;;;;5095394;28;20472;-70
2021/11/17 18:14:01;;;;;;;117.45;71.88;;;;;;;;;;5095279;28;20043;-70
2021/11/17 18:16:27;;;;;;;109.72;68.93;;;;;;;;;;5095209;28;20353;-70
2021/11/17 18:18:54;;;;;;;128.65;77.43;;;;;;;;;;5095210;28;20099;-70
2021/11/17 18:21:21;;;;;;;122.30;71.57;;;;;;;;;;5093935;28;20024;-70
2021/11/17 18:23:48;;;;;;;105.45;68.93;;;;;;;;;;5093963;28;20111;-70
2021/11/17 18:26:22;;;;;;;94.82;60.67;;;;;;;;;;5095005;28;20103;-70
2021/11/17 18:28:48;;;;;;;80.05;52.47;;;;;;;;;;5095321;28;20017;-71
2021/11/17 18:31:15;;;;;;;85.75;52.58;;;;;;;;;;5094691;28;20028;-70
2021/11/17 18:33:41;;;;;;;79.95;51.45;;;;;;;;;;5094842;28;20050;-70
2021/11/17 18:36:08;;;;;;;71.80;46.38;;;;;;;;;;5093586;28;20028;-70